Bostic Yard, North Carolina
Current Conditions -  °F | °C
As of 9:55 AM on Wednesday 26 Nov 2014 (Local Time) from KFQD Reporting Station
Light Rain Light Rain  
Wind Chill: 43°   Ceiling: 6500
Heat Index: 43°   Visibility: 10mi
Dew Point: 42°   Wind: 3mph
Humidity: 95%   Direction: 30°NNE
Pressure: 30.02"   Gusts: NA
Location:  35.4977°N, 81.7958°W
Report Text: KFQD 261455Z AUTO 03003KT 10SM -RA SCT055 OVC065 06/05 A3002 RMK AO2 P0001 60026 T00610053
Loading
Personal Weather Stations






























Interactive Weather Map New forecast layout! Learn more

10-Day Weather Forecast

Advertisements
Track Severe Weather on mobile